Airfield :
LOGIN :

Register | Disclaimer

   EN    FR    IT 

 










Legend :    VFR   Marginal VFR   IFR   Intensive IFR   Very Intensive IFR
Visi :
Ceiling :
>= 8 km
>= 3000ft
5 to 8 km
1000 to 3000 ft
1500m to 5 km
500 to 1000 ft
800 to 1500m
200 to 500 ft
< 800m
< 200 ft
Symbols :   Thunderstorms  Fog  Heavy snow  Heavy precipitations  Wind > 20 kt
SIGMETs :     Misc.  Thunderstorms  Icing  Turbulence  Mountain Waves  Volcanic Ashes






- Airport Elevation : 7 ft
- IATA code : POW


LJPZ - Portoroz

CURRENT METAR :
  • 080830Z 13005KT 9999 FEW040 SCT250 09/07 Q1010

EXPIRED METARs :
  • 080800Z 13008KT 9999 FEW040 SCT250 08/07 Q1010
  • 080730Z 12010KT 9999 -RA SCT020 BKN040 08/07 Q1010
  • 080700Z 13004KT 100V160 9999 SCT020 BKN030 08/07 Q1010
  • 080630Z 24002KT 9999 -RA SCT020 BKN030 08/07 Q1010
  • 080600Z 31002KT 9999 BKN030 08/07 Q1010

TAF TAF LJPZ
Valid from the 08 at 09:00 until the 08 at 18:00 UTC


080800Z 0809/0818 12005KT 9999 SCT035 BKN040
TEMPO 0809/0818 -RA



MET'MAP, your aeronautical weather chart ! - Copyright ORBIFLY December 2007 - Disclaimer

ORBIFLY MET'MAP TEAM :

Programming & Development : Alexandra Zaïnal
Original concept : Baudouin d'Aumeries
Technical & hardware support : Manuel Goepfert
Assistance : Marc-Olivier Méhu




SOURCES & CREDITS :

   NOAA